sensor_id;sensor_type;location;lat;lon;timestamp;pressure;altitude;pressure_sealevel;temperature;humidity
19023;BME280;35226;48.606;8.858;2022-07-21T00:00:11;96636.91;;;17.86;100.00
19023;BME280;35226;48.606;8.858;2022-07-21T00:02:37;96644.50;;;17.85;100.00
19023;BME280;35226;48.606;8.858;2022-07-21T00:05:03;96644.22;;;17.83;100.00
19023;BME280;35226;48.606;8.858;2022-07-21T00:07:28;96644.72;;;17.82;100.00
19023;BME280;35226;48.606;8.858;2022-07-21T00:09:54;96651.56;;;17.81;100.00
19023;BME280;35226;48.606;8.858;2022-07-21T00:12:20;96662.75;;;17.81;100.00
19023;BME280;35226;48.606;8.858;2022-07-21T00:14:46;96643.75;;;17.85;100.00
19023;BME280;35226;48.606;8.858;2022-07-21T00:17:11;96655.69;;;17.85;100.00
19023;BME280;35226;48.606;8.858;2022-07-21T00:19:37;96658.19;;;17.83;100.00
19023;BME280;35226;48.606;8.858;2022-07-21T00:22:02;96666.59;;;17.83;100.00
19023;BME280;35226;48.606;8.858;2022-07-21T00:24:28;96662.84;;;17.86;100.00
19023;BME280;35226;48.606;8.858;2022-07-21T00:26:54;96656.75;;;17.88;100.00
19023;BME280;35226;48.606;8.858;2022-07-21T00:29:19;96659.25;;;17.86;100.00
19023;BME280;35226;48.606;8.858;2022-07-21T00:31:45;96663.31;;;17.85;100.00
19023;BME280;35226;48.606;8.858;2022-07-21T00:34:10;96666.69;;;17.89;100.00
19023;BME280;35226;48.606;8.858;2022-07-21T00:36:36;96660.03;;;17.86;100.00
19023;BME280;35226;48.606;8.858;2022-07-21T00:39:01;96659.09;;;17.89;100.00
19023;BME280;35226;48.606;8.858;2022-07-21T00:41:27;96663.91;;;17.89;100.00
19023;BME280;35226;48.606;8.858;2022-07-21T00:43:52;96671.03;;;17.90;100.00
19023;BME280;35226;48.606;8.858;2022-07-21T00:46:21;96672.38;;;17.94;100.00
19023;BME280;35226;48.606;8.858;2022-07-21T00:48:47;96675.56;;;17.87;100.00
19023;BME280;35226;48.606;8.858;2022-07-21T00:51:12;96673.06;;;17.89;100.00
19023;BME280;35226;48.606;8.858;2022-07-21T00:53:38;96675.56;;;17.87;100.00
19023;BME280;35226;48.606;8.858;2022-07-21T00:56:04;96666.09;;;17.85;100.00
19023;BME280;35226;48.606;8.858;2022-07-21T00:58:30;96668.13;;;17.84;100.00
19023;BME280;35226;48.606;8.858;2022-07-21T01:00:56;96663.03;;;17.83;100.00
19023;BME280;35226;48.606;8.858;2022-07-21T01:03:22;96668.13;;;17.84;100.00
19023;BME280;35226;48.606;8.858;2022-07-21T01:05:47;96662.53;;;17.84;100.00
19023;BME280;35226;48.606;8.858;2022-07-21T01:08:14;96655.69;;;17.85;100.00
19023;BME280;35226;48.606;8.858;2022-07-21T01:10:40;96658.97;;;17.84;100.00
19023;BME280;35226;48.606;8.858;2022-07-21T01:13:05;96655.22;;;17.87;100.00
19023;BME280;35226;48.606;8.858;2022-07-21T01:15:31;96661.88;;;17.89;100.00
19023;BME280;35226;48.606;8.858;2022-07-21T01:17:57;96665.22;;;17.93;100.00
19023;BME280;35226;48.606;8.858;2022-07-21T01:20:24;96652.78;;;17.94;100.00
19023;BME280;35226;48.606;8.858;2022-07-21T01:22:53;96657.13;;;17.95;100.00
19023;BME280;35226;48.606;8.858;2022-07-21T01:25:19;96658.19;;;17.98;100.00
19023;BME280;35226;48.606;8.858;2022-07-21T01:27:45;96653.66;;;18.00;100.00
19023;BME280;35226;48.606;8.858;2022-07-21T01:30:11;96670.44;;;18.00;100.00
19023;BME280;35226;48.606;8.858;2022-07-21T01:32:39;96681.53;;;17.95;100.00
19023;BME280;35226;48.606;8.858;2022-07-21T01:35:06;96686.25;;;18.03;100.00
19023;BME280;35226;48.606;8.858;2022-07-21T01:37:36;96699.19;;;18.01;100.00
19023;BME280;35226;48.606;8.858;2022-07-21T01:40:02;96718.75;;;17.86;100.00
19023;BME280;35226;48.606;8.858;2022-07-21T01:42:46;96719.59;;;17.92;100.00
19023;BME280;35226;48.606;8.858;2022-07-21T01:45:12;96725.09;;;17.87;100.00
19023;BME280;35226;48.606;8.858;2022-07-21T01:47:37;96736.66;;;17.80;100.00
19023;BME280;35226;48.606;8.858;2022-07-21T01:50:04;96727.22;;;17.77;100.00
19023;BME280;35226;48.606;8.858;2022-07-21T01:52:30;96716.22;;;17.73;100.00
19023;BME280;35226;48.606;8.858;2022-07-21T01:54:55;96727.13;;;17.71;100.00
19023;BME280;35226;48.606;8.858;2022-07-21T01:57:21;96722.78;;;17.70;100.00
19023;BME280;35226;48.606;8.858;2022-07-21T01:59:47;96718.94;;;17.68;100.00
19023;BME280;35226;48.606;8.858;2022-07-21T02:02:12;96718.75;;;17.71;100.00
19023;BME280;35226;48.606;8.858;2022-07-21T02:04:38;96721.81;;;17.73;100.00
19023;BME280;35226;48.606;8.858;2022-07-21T02:07:04;96729.25;;;17.77;100.00
19023;BME280;35226;48.606;8.858;2022-07-21T02:09:29;96717.59;;;17.78;100.00
19023;BME280;35226;48.606;8.858;2022-07-21T02:11:55;96713.72;;;17.75;100.00
19023;BME280;35226;48.606;8.858;2022-07-21T02:14:21;96710.75;;;17.79;100.00
19023;BME280;35226;48.606;8.858;2022-07-21T02:16:46;96711.22;;;17.78;100.00
19023;BME280;35226;48.606;8.858;2022-07-21T02:19:12;96715.56;;;17.79;100.00
19023;BME280;35226;48.606;8.858;2022-07-21T02:21:38;96712.66;;;17.73;100.00
19023;BME280;35226;48.606;8.858;2022-07-21T02:24:04;96707.34;;;17.75;100.00
19023;BME280;35226;48.606;8.858;2022-07-21T02:26:30;96717.28;;;17.76;100.00
19023;BME280;35226;48.606;8.858;2022-07-21T02:28:55;96724.34;;;17.71;100.00
19023;BME280;35226;48.606;8.858;2022-07-21T02:31:21;96721.81;;;17.73;100.00
19023;BME280;35226;48.606;8.858;2022-07-21T02:33:46;96715.19;;;17.71;100.00
19023;BME280;35226;48.606;8.858;2022-07-21T02:36:12;96717.19;;;17.70;100.00
19023;BME280;35226;48.606;8.858;2022-07-21T02:38:38;96721.03;;;17.73;100.00
19023;BME280;35226;48.606;8.858;2022-07-21T02:41:04;96718.25;;;17.73;100.00
19023;BME280;35226;48.606;8.858;2022-07-21T02:43:29;96705.81;;;17.74;100.00
19023;BME280;35226;48.606;8.858;2022-07-21T02:45:55;96702.34;;;17.79;100.00
19023;BME280;35226;48.606;8.858;2022-07-21T02:48:20;96723.47;;;17.80;100.00
19023;BME280;35226;48.606;8.858;2022-07-21T02:50:46;96715.56;;;17.79;100.00
19023;BME280;35226;48.606;8.858;2022-07-21T02:53:14;96708.03;;;17.85;100.00
19023;BME280;35226;48.606;8.858;2022-07-21T02:55:43;96712.06;;;17.84;100.00
19023;BME280;35226;48.606;8.858;2022-07-21T02:58:20;96707.75;;;17.83;100.00
19023;BME280;35226;48.606;8.858;2022-07-21T03:00:50;96699.84;;;17.81;100.00
19023;BME280;35226;48.606;8.858;2022-07-21T03:03:17;96707.94;;;17.79;100.00
19023;BME280;35226;48.606;8.858;2022-07-21T03:05:42;96725.50;;;17.80;100.00
19023;BME280;35226;48.606;8.858;2022-07-21T03:08:09;96724.25;;;17.81;100.00
19023;BME280;35226;48.606;8.858;2022-07-21T03:10:36;96729.06;;;17.80;100.00
19023;BME280;35226;48.606;8.858;2022-07-21T03:13:02;96720.19;;;17.82;100.00
19023;BME280;35226;48.606;8.858;2022-07-21T03:15:28;96723.47;;;17.80;100.00
19023;BME280;35226;48.606;8.858;2022-07-21T03:17:54;96739.34;;;17.74;100.00
19023;BME280;35226;48.606;8.858;2022-07-21T03:20:28;96744.16;;;17.73;100.00
19023;BME280;35226;48.606;8.858;2022-07-21T03:22:54;96748.03;;;17.76;100.00
19023;BME280;35226;48.606;8.858;2022-07-21T03:25:20;96747.25;;;17.75;100.00
19023;BME280;35226;48.606;8.858;2022-07-21T03:27:47;96743.22;;;17.77;100.00
19023;BME280;35226;48.606;8.858;2022-07-21T03:30:14;96744.06;;;17.68;100.00
19023;BME280;35226;48.606;8.858;2022-07-21T03:32:39;96749.19;;;17.69;100.00
19023;BME280;35226;48.606;8.858;2022-07-21T03:35:07;96747.94;;;17.70;100.00
19023;BME280;35226;48.606;8.858;2022-07-21T03:37:40;96741.28;;;17.68;100.00
19023;BME280;35226;48.606;8.858;2022-07-21T03:40:06;96741.47;;;17.64;100.00
19023;BME280;35226;48.606;8.858;2022-07-21T03:42:32;96739.91;;;17.63;100.00
19023;BME280;35226;48.606;8.858;2022-07-21T03:44:57;96740.38;;;17.62;100.00
19023;BME280;35226;48.606;8.858;2022-07-21T03:47:23;96737.13;;;17.63;100.00
19023;BME280;35226;48.606;8.858;2022-07-21T03:49:48;96732.81;;;17.62;100.00
19023;BME280;35226;48.606;8.858;2022-07-21T03:52:14;96744.44;;;17.61;100.00
19023;BME280;35226;48.606;8.858;2022-07-21T03:54:39;96737.00;;;17.58;100.00
19023;BME280;35226;48.606;8.858;2022-07-21T03:57:05;96754.84;;;17.60;100.00
19023;BME280;35226;48.606;8.858;2022-07-21T03:59:30;96762.91;;;17.58;100.00
19023;BME280;35226;48.606;8.858;2022-07-21T04:01:56;96760.41;;;17.60;100.00
19023;BME280;35226;48.606;8.858;2022-07-21T04:04:21;96760.88;;;17.59;100.00
19023;BME280;35226;48.606;8.858;2022-07-21T04:06:47;96765.41;;;17.56;100.00
19023;BME280;35226;48.606;8.858;2022-07-21T04:09:13;96758.56;;;17.57;100.00
19023;BME280;35226;48.606;8.858;2022-07-21T04:11:38;96768.50;;;17.58;100.00
19023;BME280;35226;48.606;8.858;2022-07-21T04:14:04;96772.25;;;17.55;100.00
19023;BME280;35226;48.606;8.858;2022-07-21T04:16:29;96768.19;;;17.56;100.00
19023;BME280;35226;48.606;8.858;2022-07-21T04:18:55;96764.84;;;17.52;100.00
19023;BME280;35226;48.606;8.858;2022-07-21T04:21:20;96763.28;;;17.51;100.00
19023;BME280;35226;48.606;8.858;2022-07-21T04:23:46;96771.94;;;17.53;100.00
19023;BME280;35226;48.606;8.858;2022-07-21T04:26:11;96774.72;;;17.53;100.00
19023;BME280;35226;48.606;8.858;2022-07-21T04:28:37;96778.03;;;17.52;100.00
19023;BME280;35226;48.606;8.858;2022-07-21T04:31:03;96783.63;;;17.52;100.00
19023;BME280;35226;48.606;8.858;2022-07-21T04:33:28;96789.47;;;17.54;100.00
19023;BME280;35226;48.606;8.858;2022-07-21T04:35:54;96794.03;;;17.51;100.00
19023;BME280;35226;48.606;8.858;2022-07-21T04:38:19;96800.66;;;17.54;100.00
19023;BME280;35226;48.606;8.858;2022-07-21T04:40:45;96796.91;;;17.57;100.00
19023;BME280;35226;48.606;8.858;2022-07-21T04:43:10;96794.41;;;17.59;100.00
19023;BME280;35226;48.606;8.858;2022-07-21T04:45:36;96795.19;;;17.59;100.00
19023;BME280;35226;48.606;8.858;2022-07-21T04:48:02;96795.19;;;17.59;100.00
19023;BME280;35226;48.606;8.858;2022-07-21T04:50:29;96798.28;;;17.61;100.00
19023;BME280;35226;48.606;8.858;2022-07-21T04:52:55;96796.28;;;17.62;100.00
19023;BME280;35226;48.606;8.858;2022-07-21T04:55:21;96792.53;;;17.65;100.00
19023;BME280;35226;48.606;8.858;2022-07-21T04:57:50;96788.78;;;17.68;100.00
19023;BME280;35226;48.606;8.858;2022-07-21T05:00:18;96788.31;;;17.69;100.00
19023;BME280;35226;48.606;8.858;2022-07-21T05:02:45;96779.16;;;17.69;100.00
19023;BME280;35226;48.606;8.858;2022-07-21T05:05:11;96787.34;;;17.72;100.00
19023;BME280;35226;48.606;8.858;2022-07-21T05:07:37;96781.56;;;17.76;100.00
19023;BME280;35226;48.606;8.858;2022-07-21T05:10:07;96794.28;;;17.77;100.00
19023;BME280;35226;48.606;8.858;2022-07-21T05:12:33;96792.75;;;17.76;100.00
19023;BME280;35226;48.606;8.858;2022-07-21T05:15:00;96798.34;;;17.76;100.00
19023;BME280;35226;48.606;8.858;2022-07-21T05:17:25;96797.09;;;17.77;100.00
19023;BME280;35226;48.606;8.858;2022-07-21T05:19:51;96800.06;;;17.73;100.00
19023;BME280;35226;48.606;8.858;2022-07-21T05:22:17;96795.75;;;17.72;100.00
19023;BME280;35226;48.606;8.858;2022-07-21T05:24:43;96807.97;;;17.75;100.00
19023;BME280;35226;48.606;8.858;2022-07-21T05:27:09;96818.97;;;17.79;100.00
19023;BME280;35226;48.606;8.858;2022-07-21T05:29:35;96802.19;;;17.79;100.00
19023;BME280;35226;48.606;8.858;2022-07-21T05:32:00;96814.16;;;17.79;100.00
19023;BME280;35226;48.606;8.858;2022-07-21T05:34:26;96811.44;;;17.85;100.00
19023;BME280;35226;48.606;8.858;2022-07-21T05:36:51;96812.06;;;17.89;100.00
19023;BME280;35226;48.606;8.858;2022-07-21T05:39:19;96814.16;;;17.94;100.00
19023;BME280;35226;48.606;8.858;2022-07-21T05:41:44;96818.41;;;18.04;100.00
19023;BME280;35226;48.606;8.858;2022-07-21T05:44:10;96819.00;;;18.08;100.00
19023;BME280;35226;48.606;8.858;2022-07-21T05:46:36;96806.38;;;18.12;100.00
19023;BME280;35226;48.606;8.858;2022-07-21T05:49:01;96808.50;;;18.18;100.00
19023;BME280;35226;48.606;8.858;2022-07-21T05:51:27;96807.47;;;18.30;100.00
19023;BME280;35226;48.606;8.858;2022-07-21T05:53:52;96812.84;;;18.33;100.00
19023;BME280;35226;48.606;8.858;2022-07-21T05:56:18;96814.00;;;18.41;100.00
19023;BME280;35226;48.606;8.858;2022-07-21T05:58:43;96809.38;;;18.38;100.00
19023;BME280;35226;48.606;8.858;2022-07-21T06:01:09;96812.19;;;18.38;100.00
19023;BME280;35226;48.606;8.858;2022-07-21T06:03:55;96828.28;;;18.43;100.00
19023;BME280;35226;48.606;8.858;2022-07-21T06:06:20;96830.59;;;18.45;100.00
19023;BME280;35226;48.606;8.858;2022-07-21T06:08:49;96812.84;;;18.48;100.00
19023;BME280;35226;48.606;8.858;2022-07-21T06:11:17;96815.94;;;18.50;100.00
19023;BME280;35226;48.606;8.858;2022-07-21T06:13:43;96820.94;;;18.61;100.00
19023;BME280;35226;48.606;8.858;2022-07-21T06:16:09;96820.69;;;18.59;100.00
19023;BME280;35226;48.606;8.858;2022-07-21T06:18:35;96814.41;;;18.64;100.00
19023;BME280;35226;48.606;8.858;2022-07-21T06:21:01;96809.34;;;18.53;100.00
19023;BME280;35226;48.606;8.858;2022-07-21T06:23:27;96809.75;;;18.61;100.00
19023;BME280;35226;48.606;8.858;2022-07-21T06:25:53;96812.84;;;18.63;100.00
19023;BME280;35226;48.606;8.858;2022-07-21T06:28:19;96811.53;;;18.58;100.00
19023;BME280;35226;48.606;8.858;2022-07-21T06:30:45;96810.63;;;18.67;100.00
19023;BME280;35226;48.606;8.858;2022-07-21T06:33:11;96810.72;;;18.72;100.00
19023;BME280;35226;48.606;8.858;2022-07-21T06:35:37;96804.03;;;18.84;100.00
19023;BME280;35226;48.606;8.858;2022-07-21T06:38:03;96800.44;;;18.99;100.00
19023;BME280;35226;48.606;8.858;2022-07-21T06:40:28;96790.78;;;19.00;100.00
19023;BME280;35226;48.606;8.858;2022-07-21T06:42:54;96799.91;;;19.00;100.00
19023;BME280;35226;48.606;8.858;2022-07-21T06:45:21;96806.16;;;19.10;100.00
19023;BME280;35226;48.606;8.858;2022-07-21T06:47:47;96795.75;;;19.10;100.00
19023;BME280;35226;48.606;8.858;2022-07-21T06:50:12;96792.06;;;19.19;100.00
19023;BME280;35226;48.606;8.858;2022-07-21T06:52:38;96789.03;;;19.22;100.00
19023;BME280;35226;48.606;8.858;2022-07-21T06:55:06;96799.41;;;19.37;100.00
19023;BME280;35226;48.606;8.858;2022-07-21T06:57:34;96803.78;;;19.38;100.00
19023;BME280;35226;48.606;8.858;2022-07-21T07:00:00;96799.63;;;19.33;100.00
19023;BME280;35226;48.606;8.858;2022-07-21T07:02:25;96802.78;;;19.41;100.00
19023;BME280;35226;48.606;8.858;2022-07-21T07:04:51;96806.34;;;19.41;100.00
19023;BME280;35226;48.606;8.858;2022-07-21T07:07:17;96804.41;;;19.47;100.00
19023;BME280;35226;48.606;8.858;2022-07-21T07:09:45;96803.06;;;19.43;100.00
19023;BME280;35226;48.606;8.858;2022-07-21T07:12:11;96803.50;;;19.56;100.00
19023;BME280;35226;48.606;8.858;2022-07-21T07:14:36;96801.69;;;19.53;100.00
19023;BME280;35226;48.606;8.858;2022-07-21T07:17:03;96804.00;;;19.54;100.00
19023;BME280;35226;48.606;8.858;2022-07-21T07:19:30;96811.91;;;19.56;100.00
19023;BME280;35226;48.606;8.858;2022-07-21T07:21:56;96804.00;;;19.54;100.00
19023;BME280;35226;48.606;8.858;2022-07-21T07:24:22;96790.38;;;19.47;100.00
19023;BME280;35226;48.606;8.858;2022-07-21T07:26:48;96788.50;;;19.39;100.00
19023;BME280;35226;48.606;8.858;2022-07-21T07:29:14;96792.97;;;19.31;100.00
19023;BME280;35226;48.606;8.858;2022-07-21T07:31:40;96798.84;;;19.33;100.00
19023;BME280;35226;48.606;8.858;2022-07-21T07:34:06;96795.38;;;19.38;100.00
19023;BME280;35226;48.606;8.858;2022-07-21T07:36:32;96803.06;;;19.43;100.00
19023;BME280;35226;48.606;8.858;2022-07-21T07:38:58;96798.94;;;19.38;100.00
19023;BME280;35226;48.606;8.858;2022-07-21T07:41:25;96795.88;;;19.56;100.00
19023;BME280;35226;48.606;8.858;2022-07-21T07:43:52;96802.09;;;19.66;100.00
19023;BME280;35226;48.606;8.858;2022-07-21T07:46:18;96806.09;;;19.59;100.00
19023;BME280;35226;48.606;8.858;2022-07-21T07:48:44;96805.06;;;19.57;100.00
19023;BME280;35226;48.606;8.858;2022-07-21T07:51:11;96804.47;;;19.53;100.00
19023;BME280;35226;48.606;8.858;2022-07-21T07:53:37;96806.31;;;19.56;100.00
19023;BME280;35226;48.606;8.858;2022-07-21T07:56:04;96807.00;;;19.51;100.00
19023;BME280;35226;48.606;8.858;2022-07-21T07:58:30;96808.00;;;19.68;100.00
19023;BME280;35226;48.606;8.858;2022-07-21T08:00:56;96804.00;;;19.54;100.00
19023;BME280;35226;48.606;8.858;2022-07-21T08:03:23;96812.47;;;19.60;100.00
19023;BME280;35226;48.606;8.858;2022-07-21T08:05:53;96812.06;;;19.67;100.00
19023;BME280;35226;48.606;8.858;2022-07-21T08:08:31;96811.81;;;19.71;100.00
19023;BME280;35226;48.606;8.858;2022-07-21T08:11:31;96805.66;;;19.87;100.00
19023;BME280;35226;48.606;8.858;2022-07-21T08:14:34;96799.31;;;19.92;100.00
19023;BME280;35226;48.606;8.858;2022-07-21T08:17:33;96803.47;;;20.22;100.00
19023;BME280;35226;48.606;8.858;2022-07-21T08:20:17;96803.34;;;20.11;100.00
19023;BME280;35226;48.606;8.858;2022-07-21T08:22:44;96796.03;;;20.19;100.00
19023;BME280;35226;48.606;8.858;2022-07-21T08:26:11;96798.31;;;20.41;100.00
19023;BME280;35226;48.606;8.858;2022-07-21T08:28:53;96801.47;;;20.54;100.00
19023;BME280;35226;48.606;8.858;2022-07-21T08:31:43;96806.94;;;20.38;100.00
19023;BME280;35226;48.606;8.858;2022-07-21T08:34:13;96803.88;;;20.36;100.00
19023;BME280;35226;48.606;8.858;2022-07-21T08:36:46;96801.53;;;20.34;100.00
19023;BME280;35226;48.606;8.858;2022-07-21T08:39:21;96807.06;;;20.28;100.00
19023;BME280;35226;48.606;8.858;2022-07-21T08:42:11;96808.84;;;20.52;100.00
19023;BME280;35226;48.606;8.858;2022-07-21T08:44:53;96801.47;;;20.54;100.00
19023;BME280;35226;48.606;8.858;2022-07-21T08:47:41;96805.78;;;20.50;100.00
19023;BME280;35226;48.606;8.858;2022-07-21T08:50:12;96799.16;;;20.53;100.00
19023;BME280;35226;48.606;8.858;2022-07-21T08:52:39;96803.34;;;20.63;100.00
19023;BME280;35226;48.606;8.858;2022-07-21T08:55:06;96801.06;;;20.67;100.00
19023;BME280;35226;48.606;8.858;2022-07-21T08:57:37;96797.47;;;20.66;100.00
19023;BME280;35226;48.606;8.858;2022-07-21T09:00:07;96804.38;;;20.65;100.00
19023;BME280;35226;48.606;8.858;2022-07-21T09:02:42;96800.22;;;20.55;100.00
19023;BME280;35226;48.606;8.858;2022-07-21T09:05:24;96803.16;;;20.72;100.00
19023;BME280;35226;48.606;8.858;2022-07-21T09:08:01;96803.94;;;20.73;100.00
19023;BME280;35226;48.606;8.858;2022-07-21T09:10:30;96805.97;;;20.72;100.00
19023;BME280;35226;48.606;8.858;2022-07-21T09:13:00;96806.06;;;20.83;100.00
19023;BME280;35226;48.606;8.858;2022-07-21T09:15:30;96804.22;;;20.80;100.00
19023;BME280;35226;48.606;8.858;2022-07-21T09:18:13;96801.16;;;20.78;100.00
19023;BME280;35226;48.606;8.858;2022-07-21T09:20:47;96798.22;;;20.98;100.00
19023;BME280;35226;48.606;8.858;2022-07-21T09:23:15;96803.16;;;21.09;100.00
19023;BME280;35226;48.606;8.858;2022-07-21T09:25:57;96796.13;;;21.25;100.00
19023;BME280;35226;48.606;8.858;2022-07-21T09:28:31;96799.13;;;21.69;100.00
19023;BME280;35226;48.606;8.858;2022-07-21T09:31:07;96797.84;;;21.70;100.00
19023;BME280;35226;48.606;8.858;2022-07-21T09:33:35;96792.97;;;21.65;100.00
19023;BME280;35226;48.606;8.858;2022-07-21T09:36:05;96796.72;;;22.10;100.00
19023;BME280;35226;48.606;8.858;2022-07-21T09:38:36;96797.41;;;21.89;100.00
19023;BME280;35226;48.606;8.858;2022-07-21T09:41:09;96791.84;;;22.00;100.00
19023;BME280;35226;48.606;8.858;2022-07-21T09:43:40;96778.06;;;22.24;100.00
19023;BME280;35226;48.606;8.858;2022-07-21T09:46:18;96780.91;;;22.58;100.00
19023;BME280;35226;48.606;8.858;2022-07-21T09:48:46;96781.41;;;22.67;100.00
19023;BME280;35226;48.606;8.858;2022-07-21T09:51:40;96789.31;;;23.02;100.00
19023;BME280;35226;48.606;8.858;2022-07-21T09:54:11;96783.97;;;22.99;100.00
19023;BME280;35226;48.606;8.858;2022-07-21T09:56:42;96787.75;;;23.23;100.00
19023;BME280;35226;48.606;8.858;2022-07-21T09:59:12;96782.13;;;23.12;100.00
19023;BME280;35226;48.606;8.858;2022-07-21T10:01:39;96786.03;;;22.98;100.00
19023;BME280;35226;48.606;8.858;2022-07-21T10:04:06;96778.31;;;22.93;100.00
19023;BME280;35226;48.606;8.858;2022-07-21T10:06:35;96786.56;;;22.91;100.00
19023;BME280;35226;48.606;8.858;2022-07-21T10:09:04;96787.81;;;22.84;100.00
19023;BME280;35226;48.606;8.858;2022-07-21T10:11:30;96787.56;;;22.77;100.00
19023;BME280;35226;48.606;8.858;2022-07-21T10:13:56;96778.34;;;22.82;100.00
19023;BME280;35226;48.606;8.858;2022-07-21T10:16:22;96770.13;;;22.95;100.00
19023;BME280;35226;48.606;8.858;2022-07-21T10:24:27;96760.63;;;23.09;100.00
19023;BME280;35226;48.606;8.858;2022-07-21T10:27:10;96759.84;;;23.14;100.00
19023;BME280;35226;48.606;8.858;2022-07-21T10:29:52;96763.13;;;23.35;100.00
19023;BME280;35226;48.606;8.858;2022-07-21T10:32:24;96766.31;;;23.73;100.00
19023;BME280;35226;48.606;8.858;2022-07-21T10:34:52;96763.38;;;23.95;100.00
19023;BME280;35226;48.606;8.858;2022-07-21T10:40:05;96742.41;;;24.20;100.00
19023;BME280;35226;48.606;8.858;2022-07-21T10:42:31;96753.22;;;24.57;100.00
19023;BME280;35226;48.606;8.858;2022-07-21T10:45:28;96748.84;;;24.86;99.60
19023;BME280;35226;48.606;8.858;2022-07-21T10:47:54;96747.81;;;25.14;100.00
19023;BME280;35226;48.606;8.858;2022-07-21T10:50:34;96754.28;;;25.33;91.77
19023;BME280;35226;48.606;8.858;2022-07-21T10:53:20;96752.53;;;25.49;100.00
19023;BME280;35226;48.606;8.858;2022-07-21T10:55:51;96752.38;;;25.65;86.72
19023;BME280;35226;48.606;8.858;2022-07-21T11:00:54;96749.78;;;26.05;73.06
19023;BME280;35226;48.606;8.858;2022-07-21T11:06:23;96749.94;;;26.31;66.25
19023;BME280;35226;48.606;8.858;2022-07-21T11:11:29;96739.91;;;26.62;63.12
19023;BME280;35226;48.606;8.858;2022-07-21T11:14:17;96741.91;;;26.80;73.59
19023;BME280;35226;48.606;8.858;2022-07-21T11:19:44;96733.03;;;27.29;52.66
19023;BME280;35226;48.606;8.858;2022-07-21T11:22:30;96727.25;;;27.08;53.68
19023;BME280;35226;48.606;8.858;2022-07-21T11:24:59;96726.47;;;27.47;53.19
19023;BME280;35226;48.606;8.858;2022-07-21T11:27:27;96720.59;;;27.58;51.82
19023;BME280;35226;48.606;8.858;2022-07-21T11:29:56;96729.06;;;27.85;50.14
19023;BME280;35226;48.606;8.858;2022-07-21T11:32:22;96722.97;;;27.68;53.67
19023;BME280;35226;48.606;8.858;2022-07-21T11:34:53;96724.84;;;27.52;51.26
19023;BME280;35226;48.606;8.858;2022-07-21T11:37:40;96732.59;;;27.12;49.71
19023;BME280;35226;48.606;8.858;2022-07-21T11:40:12;96727.00;;;27.06;50.54
19023;BME280;35226;48.606;8.858;2022-07-21T11:42:38;96725.47;;;27.05;53.34
19023;BME280;35226;48.606;8.858;2022-07-21T11:45:05;96719.91;;;27.13;55.67
19023;BME280;35226;48.606;8.858;2022-07-21T11:47:31;96714.16;;;27.32;51.38
19023;BME280;35226;48.606;8.858;2022-07-21T11:49:59;96709.25;;;27.58;52.02
19023;BME280;35226;48.606;8.858;2022-07-21T11:52:30;96722.13;;;27.59;48.04
19023;BME280;35226;48.606;8.858;2022-07-21T11:54:57;96717.69;;;27.85;45.72
19023;BME280;35226;48.606;8.858;2022-07-21T11:57:25;96707.75;;;28.12;46.56
19023;BME280;35226;48.606;8.858;2022-07-21T11:59:52;96710.59;;;28.12;42.93
19023;BME280;35226;48.606;8.858;2022-07-21T12:02:36;96706.47;;;28.13;41.96
19023;BME280;35226;48.606;8.858;2022-07-21T12:05:06;96716.63;;;28.43;43.60
19023;BME280;35226;48.606;8.858;2022-07-21T12:07:38;96702.19;;;28.61;42.85
19023;BME280;35226;48.606;8.858;2022-07-21T12:10:14;96699.28;;;28.75;42.60
19023;BME280;35226;48.606;8.858;2022-07-21T12:12:46;96697.97;;;28.96;41.74
19023;BME280;35226;48.606;8.858;2022-07-21T12:17:46;96700.94;;;28.91;44.02
19023;BME280;35226;48.606;8.858;2022-07-21T12:20:12;96701.03;;;28.57;41.62
19023;BME280;35226;48.606;8.858;2022-07-21T12:22:46;96705.94;;;28.02;43.51
19023;BME280;35226;48.606;8.858;2022-07-21T12:25:14;96701.63;;;27.87;44.17
19023;BME280;35226;48.606;8.858;2022-07-21T12:27:42;96704.44;;;28.01;43.46
19023;BME280;35226;48.606;8.858;2022-07-21T12:30:11;96694.00;;;28.16;45.11
19023;BME280;35226;48.606;8.858;2022-07-21T12:32:53;96692.56;;;28.64;47.74
19023;BME280;35226;48.606;8.858;2022-07-21T12:35:22;96698.31;;;29.21;44.79
19023;BME280;35226;48.606;8.858;2022-07-21T12:37:58;96695.56;;;29.72;42.04
19023;BME280;35226;48.606;8.858;2022-07-21T12:40:25;96695.03;;;29.89;40.45
19023;BME280;35226;48.606;8.858;2022-07-21T12:43:03;96692.84;;;30.10;39.64
19023;BME280;35226;48.606;8.858;2022-07-21T12:45:29;96692.91;;;30.33;39.16
19023;BME280;35226;48.606;8.858;2022-07-21T12:48:08;96695.75;;;30.33;39.29
19023;BME280;35226;48.606;8.858;2022-07-21T12:50:38;96694.81;;;30.38;41.06
19023;BME280;35226;48.606;8.858;2022-07-21T12:53:08;96695.50;;;30.01;39.03
19023;BME280;35226;48.606;8.858;2022-07-21T12:55:33;96695.91;;;30.05;39.56
19023;BME280;35226;48.606;8.858;2022-07-21T12:57:59;96687.25;;;29.90;41.15
19023;BME280;35226;48.606;8.858;2022-07-21T13:00:25;96696.59;;;30.72;39.31
19023;BME280;35226;48.606;8.858;2022-07-21T13:02:55;96694.09;;;30.99;41.18
19023;BME280;35226;48.606;8.858;2022-07-21T13:05:22;96693.53;;;31.08;35.56
19023;BME280;35226;48.606;8.858;2022-07-21T13:07:48;96694.28;;;31.01;35.57
19023;BME280;35226;48.606;8.858;2022-07-21T13:10:16;96695.69;;;31.55;36.33
19023;BME280;35226;48.606;8.858;2022-07-21T13:12:43;96696.09;;;31.44;35.16
19023;BME280;35226;48.606;8.858;2022-07-21T13:15:09;96687.91;;;31.63;35.18
19023;BME280;35226;48.606;8.858;2022-07-21T13:17:35;96697.78;;;31.70;34.76
19023;BME280;35226;48.606;8.858;2022-07-21T13:20:01;96701.13;;;31.20;35.76
19023;BME280;35226;48.606;8.858;2022-07-21T13:22:27;96699.22;;;31.15;36.34